Terminal Aerodrome Forecast
Issued by NWS

Current Version | Previous Version | Graphics & Text | Print | Product List | Glossary On
Versions: 1 2 3 4 5 6 7 8 9 10 11 12 13 14 15 16 17 18 19 20 21 22 23 24 25 26 27 28 29
000
FTUS41 KPBZ 042200 AAC
TAFHLG
TAF AMD
KHLG 042222Z 0422/0518 27007KT 2SM -SN BKN008
      TEMPO 0422/0424 1/2SM SN FG OVC004
     FM050200 34006KT 4SM -SN OVC015
     FM051000 34008KT P6SM BKN025=

USA.gov is the U.S. government's official web portal to all federal, state and local government web resources and services.